Time;durP1;ratioP1;P1;durP2;ratioP2;P2;SDS_P1;SDS_P2;PMS_P1;PMS_P2;Temp;Humidity;BMP_temperature;BMP_pressure;BME280_temperature;BME280_humidity;BME280_pressure;Samples;Min_cycle;Max_cycle;Signal;HPM_P1;HPM_P2
2022/11/10 00:00:33;;;;;;;42.22;24.33;;;307.60;2304.00;;;;;;5070755;28;20021;-78
2022/11/10 00:03:05;;;;;;;44.53;25.15;;;307.60;2304.00;;;;;;5070594;28;20013;-80
2022/11/10 00:05:32;;;;;;;43.65;25.15;;;307.60;2304.00;;;;;;5070711;28;20090;-78
2022/11/10 00:08:02;;;;;;;48.33;27.60;;;307.70;2304.00;;;;;;5071052;28;20028;-79
2022/11/10 00:10:28;;;;;;;41.85;23.83;;;307.70;2304.00;;;;;;5070459;28;20028;-79
2022/11/10 00:12:54;;;;;;;43.13;26.30;;;307.70;2304.00;;;;;;5070230;28;20382;-78
2022/11/10 00:18:04;;;;;;;48.75;26.63;;;307.60;2304.00;;;;;;5071194;28;20063;-79
2022/11/10 00:20:30;;;;;;;46.10;27.15;;;307.60;2304.00;;;;;;5070461;28;20443;-78
2022/11/10 00:22:56;;;;;;;47.47;27.35;;;307.60;2304.00;;;;;;5070042;28;20078;-78
2022/11/10 00:25:23;;;;;;;40.97;25.55;;;307.60;2304.00;;;;;;5070212;28;20021;-78
2022/11/10 00:27:48;;;;;;;49.45;26.27;;;307.80;2304.00;;;;;;5071363;28;20024;-79
2022/11/10 00:30:14;;;;;;;49.33;27.17;;;307.60;2304.00;;;;;;5070413;28;20012;-78
2022/11/10 00:32:40;;;;;;;58.63;27.50;;;307.60;2304.00;;;;;;5070087;28;20020;-79
2022/11/10 00:35:06;;;;;;;46.22;26.50;;;307.60;2304.00;;;;;;5070226;28;20135;-79
2022/11/10 00:37:32;;;;;;;46.05;27.40;;;307.50;2304.00;;;;;;5069861;28;20017;-79
2022/11/10 00:39:58;;;;;;;48.45;27.10;;;307.60;2304.00;;;;;;5070427;28;20025;-79
2022/11/10 00:42:24;;;;;;;50.30;26.67;;;307.50;2304.00;;;;;;5068388;28;20066;-79
2022/11/10 00:44:50;;;;;;;45.83;26.23;;;307.50;2304.00;;;;;;5071391;28;20036;-78
2022/11/10 00:47:15;;;;;;;43.05;27.00;;;307.50;2304.00;;;;;;5069536;28;20549;-78
2022/11/10 00:49:41;;;;;;;47.42;26.83;;;307.50;2304.00;;;;;;5069683;28;20033;-79
2022/11/10 00:52:07;;;;;;;56.20;27.65;;;307.50;2304.00;;;;;;5087156;28;20028;-78
2022/11/10 00:54:33;;;;;;;51.17;25.83;;;307.50;2304.00;;;;;;5072437;28;20028;-78
2022/11/10 00:56:58;;;;;;;42.88;26.63;;;308.00;2304.00;;;;;;5073461;28;20079;-79
2022/11/10 00:59:24;;;;;;;;;;;307.50;2304.00;;;;;;5073957;28;20025;-78
2022/11/10 01:01:49;;;;;;;46.75;26.10;;;307.50;2304.00;;;;;;5074776;28;20010;-79
2022/11/10 01:04:15;;;;;;;;;;;307.50;2304.00;;;;;;5073767;28;20396;-79
2022/11/10 01:06:41;;;;;;;42.42;25.00;;;307.50;2304.00;;;;;;5074732;28;19986;-79
2022/11/10 01:09:06;;;;;;;;;;;307.50;2304.00;;;;;;5074582;28;20024;-79
2022/11/10 01:11:32;;;;;;;51.78;25.95;;;307.50;2304.00;;;;;;5073369;28;19905;-79
2022/11/10 01:13:58;;;;;;;50.50;28.42;;;307.40;2304.00;;;;;;5074444;28;20028;-79
2022/11/10 01:16:29;;;;;;;49.08;26.38;;;307.40;2304.00;;;;;;5072793;28;20090;-78
2022/11/10 01:18:58;;;;;;;52.90;29.55;;;307.40;2304.00;;;;;;5074592;28;20063;-79
2022/11/10 01:21:25;;;;;;;53.13;27.95;;;307.40;2304.00;;;;;;5074574;28;20515;-78
2022/11/10 01:23:51;;;;;;;51.95;28.40;;;307.30;2304.00;;;;;;5072570;28;20047;-78
2022/11/10 01:26:17;;;;;;;45.30;28.73;;;307.30;2304.00;;;;;;5073571;28;20040;-79
2022/11/10 01:28:44;;;;;;;46.55;26.60;;;307.30;2304.00;;;;;;5089379;28;20028;-79
2022/11/10 01:31:15;;;;;;;57.45;29.02;;;307.30;2304.00;;;;;;5084023;28;20043;-79
2022/11/10 01:33:41;;;;;;;57.75;31.80;;;307.30;2304.00;;;;;;5094035;28;20058;-79
2022/11/10 01:36:08;;;;;;;50.65;29.80;;;307.20;2304.00;;;;;;5093771;28;20027;-78
2022/11/10 01:38:37;;;;;;;51.53;29.48;;;307.20;2304.00;;;;;;5094041;28;20020;-79
2022/11/10 01:41:05;;;;;;;49.75;30.60;;;307.20;2304.00;;;;;;5094402;28;20046;-79
2022/11/10 01:43:31;;;;;;;52.58;31.02;;;307.20;2304.00;;;;;;5093826;28;20501;-79
2022/11/10 01:46:04;;;;;;;52.83;29.52;;;307.20;2304.00;;;;;;5089235;28;20028;-79
2022/11/10 01:48:35;;;;;;;54.22;29.33;;;307.20;2304.00;;;;;;5073822;28;20113;-79
2022/11/10 01:51:24;;;;;;;56.55;30.50;;;282.50;2278.40;;;;;;5079412;28;20050;-79
2022/11/10 01:53:55;;;;;;;50.55;31.48;;;282.50;2278.40;;;;;;5093757;28;20039;-79
2022/11/10 01:56:23;;;;;;;60.30;31.77;;;282.50;2278.40;;;;;;5093710;28;20043;-78
2022/11/10 01:58:56;;;;;;;54.47;30.75;;;282.50;2278.40;;;;;;5093357;28;20040;-79
2022/11/10 02:01:24;;;;;;;54.63;30.05;;;282.50;2278.40;;;;;;5087034;28;20043;-79
2022/11/10 02:04:05;;;;;;;55.50;30.63;;;282.50;2278.40;;;;;;5073515;28;20028;-79
2022/11/10 02:06:36;;;;;;;53.92;31.08;;;282.50;2278.40;;;;;;5080971;28;20424;-79
2022/11/10 02:09:02;;;;;;;57.97;32.15;;;282.50;2278.40;;;;;;5093654;28;20449;-79
2022/11/10 02:11:29;;;;;;;63.10;32.72;;;282.50;2278.40;;;;;;5087729;28;20473;-79
2022/11/10 02:13:56;;;;;;;55.58;29.77;;;282.50;2278.40;;;;;;5084847;28;20115;-79
2022/11/10 02:16:22;;;;;;;55.60;33.55;;;282.50;2278.40;;;;;;5079883;28;20024;-79
2022/11/10 02:18:48;;;;;;;51.17;31.27;;;282.50;2278.40;;;;;;5093280;28;20492;-79
2022/11/10 02:21:16;;;;;;;51.85;31.15;;;282.50;2278.40;;;;;;5092845;28;20024;-79
2022/11/10 02:23:44;;;;;;;58.80;30.73;;;282.50;2278.40;;;;;;5092961;28;20020;-79
2022/11/10 02:26:10;;;;;;;54.03;30.05;;;282.50;2278.40;;;;;;5092358;28;20168;-79
2022/11/10 02:28:37;;;;;;;48.50;30.23;;;282.50;2278.40;;;;;;5092678;28;20032;-79
2022/11/10 02:31:04;;;;;;;50.88;29.98;;;282.50;2278.40;;;;;;5079320;28;20556;-79
2022/11/10 02:33:30;;;;;;;58.42;30.15;;;282.50;2278.40;;;;;;5092291;28;20031;-78
2022/11/10 02:35:56;;;;;;;50.40;29.73;;;282.40;2278.40;;;;;;5092818;28;20029;-78
2022/11/10 02:38:22;;;;;;;52.30;30.88;;;282.40;2278.40;;;;;;5089081;28;20480;-79
2022/11/10 02:40:52;;;;;;;57.55;31.77;;;282.40;2278.40;;;;;;5082169;28;20024;-78
2022/11/10 02:43:18;;;;;;;52.15;29.35;;;282.50;2278.40;;;;;;5090318;28;20022;-79
2022/11/10 02:45:44;;;;;;;56.65;31.95;;;282.50;2278.40;;;;;;5081730;28;20182;-79
2022/11/10 02:48:12;;;;;;;56.60;32.22;;;282.50;2278.40;;;;;;5078148;28;20024;-79
2022/11/10 02:50:38;;;;;;;49.97;30.55;;;282.30;2278.40;;;;;;5092606;28;20065;-79
2022/11/10 02:53:04;;;;;;;55.15;32.88;;;282.30;2278.40;;;;;;5092553;28;20067;-79
2022/11/10 02:55:31;;;;;;;52.65;30.80;;;282.30;2278.40;;;;;;5092150;28;20024;-79
2022/11/10 02:57:57;;;;;;;53.50;30.45;;;282.30;2278.40;;;;;;5093398;28;20036;-79
2022/11/10 03:00:22;;;;;;;53.10;30.63;;;282.30;2278.40;;;;;;5077729;28;20038;-78
2022/11/10 03:02:48;;;;;;;62.58;32.78;;;282.40;2278.40;;;;;;5073309;28;20493;-79
2022/11/10 03:05:14;;;;;;;58.72;31.10;;;282.50;2278.40;;;;;;5082763;28;20048;-79
2022/11/10 03:07:40;;;;;;;53.30;30.70;;;307.30;2304.00;;;;;;5092001;28;20447;-79
2022/11/10 03:10:06;;;;;;;65.70;30.02;;;307.30;2304.00;;;;;;5092245;28;20020;-79
2022/11/10 03:12:32;;;;;;;52.28;30.52;;;307.30;2304.00;;;;;;5092049;28;20032;-79
2022/11/10 03:14:58;;;;;;;53.00;29.60;;;307.20;2304.00;;;;;;5091537;28;20062;-79
2022/11/10 03:17:23;;;;;;;;;;;307.20;2304.00;;;;;;5092080;28;20426;-79
2022/11/10 03:19:50;;;;;;;56.63;32.03;;;307.20;2304.00;;;;;;5091828;28;20430;-79
2022/11/10 03:22:15;;;;;;;54.88;34.00;;;282.50;2278.40;;;;;;5092274;28;20023;-79
2022/11/10 03:24:41;;;;;;;62.75;33.10;;;282.30;2278.40;;;;;;5091689;28;20107;-78
2022/11/10 03:27:07;;;;;;;59.50;33.80;;;282.30;2278.40;;;;;;5091780;28;20071;-79
2022/11/10 03:29:32;;;;;;;59.72;33.75;;;282.20;2278.40;;;;;;5091820;28;20540;-78
2022/11/10 03:31:58;;;;;;;59.67;32.50;;;282.20;2278.40;;;;;;5084663;28;20028;-79
2022/11/10 03:34:24;;;;;;;;;;;282.20;2278.40;;;;;;5085068;28;20070;-79
2022/11/10 03:36:49;;;;;;;58.65;32.20;;;282.20;2278.40;;;;;;5091424;28;19940;-79
2022/11/10 03:39:15;;;;;;;;;;;282.10;2278.40;;;;;;5081317;28;20017;-80
2022/11/10 03:41:41;;;;;;;58.50;31.60;;;282.00;2278.40;;;;;;5088347;28;19961;-79
2022/11/10 03:44:06;;;;;;;67.53;34.50;;;282.00;2278.40;;;;;;5091735;28;20036;-79
2022/11/10 03:46:32;;;;;;;60.80;34.13;;;281.90;2278.40;;;;;;5091480;28;20077;-79
2022/11/10 03:48:58;;;;;;;68.30;34.30;;;281.80;2278.40;;;;;;5074862;28;20114;-79
2022/11/10 03:51:24;;;;;;;61.45;34.88;;;281.80;2278.40;;;;;;5091556;28;20020;-79
2022/11/10 03:53:49;;;;;;;70.13;34.50;;;281.80;2278.40;;;;;;5077536;28;20103;-79
2022/11/10 03:56:15;;;;;;;59.13;33.35;;;281.80;2278.40;;;;;;5091191;28;20557;-79
2022/11/10 03:58:41;;;;;;;61.58;33.25;;;281.80;2278.40;;;;;;5076840;28;20122;-79
2022/11/10 04:01:07;;;;;;;;;;;281.80;2278.40;;;;;;5087352;28;20024;-79
2022/11/10 04:03:32;;;;;;;62.03;35.60;;;281.90;2278.40;;;;;;5071129;28;20361;-80
2022/11/10 04:09:00;;;;;;;61.75;32.08;;;281.90;2278.40;;;;;;5092618;28;19957;-79
2022/11/10 04:16:57;;;;;;;60.08;32.28;;;281.90;2278.40;;;;;;5082085;28;20054;-79
2022/11/10 04:19:23;;;;;;;65.88;33.17;;;282.00;2278.40;;;;;;5090069;28;20028;-79
2022/11/10 04:21:49;;;;;;;71.75;37.92;;;281.90;2278.40;;;;;;5071380;28;20051;-79
2022/11/10 04:24:15;;;;;;;65.97;37.45;;;281.90;2278.40;;;;;;5084841;28;20028;-79
2022/11/10 04:26:42;;;;;;;61.17;34.33;;;281.90;2278.40;;;;;;5091278;28;20036;-79
2022/11/10 04:29:09;;;;;;;61.97;34.72;;;281.90;2278.40;;;;;;5093449;28;20020;-79
2022/11/10 04:31:37;;;;;;;64.90;36.00;;;281.80;2278.40;;;;;;5094659;28;20063;-79
2022/11/10 04:34:05;;;;;;;69.75;35.80;;;281.80;2278.40;;;;;;5095099;28;20028;-79
2022/11/10 04:36:33;;;;;;;67.18;39.30;;;281.80;2278.40;;;;;;5094780;28;20028;-79
2022/11/10 04:38:59;;;;;;;71.57;36.92;;;281.80;2278.40;;;;;;5096297;28;20020;-79
2022/11/10 04:41:26;;;;;;;72.63;39.83;;;281.90;2278.40;;;;;;5094325;28;20107;-78
2022/11/10 04:43:52;;;;;;;73.00;39.28;;;281.90;2278.40;;;;;;5094668;28;20017;-78
2022/11/10 04:46:37;;;;;;;73.90;40.22;;;281.80;2278.40;;;;;;5094251;28;20120;-78
2022/11/10 04:49:05;;;;;;;69.82;36.88;;;281.70;2278.40;;;;;;5069143;28;20032;-78
2022/11/10 04:51:36;;;;;;;67.75;38.42;;;281.70;2278.40;;;;;;5081719;28;20032;-77
2022/11/10 04:54:03;;;;;;;68.38;37.67;;;281.70;2278.40;;;;;;5067073;28;20023;-78
2022/11/10 04:56:29;;;;;;;71.60;37.00;;;281.70;2278.40;;;;;;5094090;28;20044;-78
2022/11/10 04:58:55;;;;;;;70.88;38.22;;;281.70;2278.40;;;;;;5093852;28;20027;-78
2022/11/10 05:01:26;;;;;;;71.57;36.67;;;281.70;2278.40;;;;;;5087295;28;20473;-77
2022/11/10 05:03:52;;;;;;;75.10;38.33;;;281.70;2278.40;;;;;;5073241;28;20489;-78
2022/11/10 05:06:19;;;;;;;64.95;38.00;;;281.80;2278.40;;;;;;5093575;28;20032;-78
2022/11/10 05:08:46;;;;;;;64.68;36.25;;;281.70;2278.40;;;;;;5082108;28;20078;-77
2022/11/10 05:11:13;;;;;;;74.55;39.63;;;281.70;2278.40;;;;;;5087727;28;20090;-77
2022/11/10 05:13:39;;;;;;;69.45;38.55;;;281.80;2278.40;;;;;;5083885;28;20361;-78
2022/11/10 05:16:06;;;;;;;78.47;41.60;;;281.80;2278.40;;;;;;5093567;28;20024;-77
2022/11/10 05:18:31;;;;;;;79.70;39.78;;;281.80;2278.40;;;;;;5085758;28;20058;-78
2022/11/10 05:20:57;;;;;;;76.43;42.30;;;282.00;2278.40;;;;;;5087691;28;20020;-78
2022/11/10 05:23:38;;;;;;;74.82;41.25;;;282.00;2278.40;;;;;;5079352;28;20051;-79
2022/11/10 05:26:11;;;;;;;73.60;40.83;;;281.80;2278.40;;;;;;5093384;28;20039;-77
2022/11/10 05:28:39;;;;;;;76.07;39.05;;;281.80;2278.40;;;;;;5093692;28;20110;-78
2022/11/10 05:31:05;;;;;;;75.50;40.67;;;281.80;2278.40;;;;;;5093675;28;20136;-78
2022/11/10 05:33:31;;;;;;;82.28;40.42;;;281.80;2278.40;;;;;;5093291;28;20491;-78
2022/11/10 05:35:57;;;;;;;85.90;44.13;;;281.80;2278.40;;;;;;5081880;28;20032;-78
2022/11/10 05:38:24;;;;;;;75.60;41.58;;;281.80;2278.40;;;;;;5087094;28;20013;-78
2022/11/10 05:40:49;;;;;;;78.32;40.85;;;281.80;2278.40;;;;;;5084006;28;20103;-78
2022/11/10 05:43:15;;;;;;;89.43;44.35;;;281.80;2278.40;;;;;;5093163;28;20039;-78
2022/11/10 05:45:41;;;;;;;76.93;41.75;;;281.90;2278.40;;;;;;5094627;28;20016;-78
2022/11/10 05:48:07;;;;;;;78.32;43.17;;;281.80;2278.40;;;;;;5093266;28;20050;-78
2022/11/10 05:50:33;;;;;;;75.53;41.10;;;281.80;2278.40;;;;;;5087140;28;20504;-80
2022/11/10 05:52:58;;;;;;;;;;;281.70;2278.40;;;;;;5073797;28;20086;-78
2022/11/10 05:55:27;;;;;;;73.60;39.33;;;281.70;2278.40;;;;;;5090605;28;20113;-78
2022/11/10 05:57:54;;;;;;;82.25;41.15;;;281.70;2278.40;;;;;;5094305;28;20054;-78
2022/11/10 06:00:26;;;;;;;71.28;39.22;;;281.60;2278.40;;;;;;5092734;28;20496;-78
2022/11/10 06:03:00;;;;;;;67.95;38.28;;;281.60;2278.40;;;;;;5078887;28;20016;-78
2022/11/10 06:05:27;;;;;;;73.85;39.45;;;281.60;2278.40;;;;;;5080537;28;20028;-80
2022/11/10 06:07:52;;;;;;;67.13;39.53;;;256.90;2252.80;;;;;;5077412;28;20028;-81
2022/11/10 06:10:18;;;;;;;66.63;35.88;;;256.90;2252.80;;;;;;5093449;28;20026;-80
2022/11/10 06:12:44;;;;;;;75.20;39.10;;;256.90;2252.80;;;;;;5078896;28;20392;-79
2022/11/10 06:15:10;;;;;;;69.28;37.78;;;256.90;2252.80;;;;;;5093457;28;20035;-80
2022/11/10 06:17:39;;;;;;;66.18;37.80;;;256.90;2252.80;;;;;;5092816;28;20478;-83
2022/11/10 06:20:05;;;;;;;62.83;36.50;;;256.90;2252.80;;;;;;5080093;28;20057;-80
2022/11/10 06:22:31;;;;;;;74.25;40.67;;;256.90;2252.80;;;;;;5093049;28;20427;-78
2022/11/10 06:24:56;;;;;;;71.15;38.58;;;281.60;2278.40;;;;;;5078753;28;20016;-78
2022/11/10 06:27:22;;;;;;;73.43;41.63;;;281.60;2278.40;;;;;;5092023;28;20138;-79
2022/11/10 06:29:48;;;;;;;;;;;281.60;2278.40;;;;;;5077933;28;20081;-78
2022/11/10 06:32:14;;;;;;;68.93;37.13;;;281.70;2278.40;;;;;;5093120;28;19904;-80
2022/11/10 06:34:39;;;;;;;;;;;281.70;2278.40;;;;;;5092923;28;20063;-78
2022/11/10 06:37:05;;;;;;;70.20;36.88;;;281.80;2278.40;;;;;;5086040;28;20407;-80
2022/11/10 06:39:30;;;;;;;;;;;281.90;2278.40;;;;;;5086235;28;20028;-80
2022/11/10 06:41:56;;;;;;;62.97;35.00;;;282.00;2278.40;;;;;;5077937;28;19908;-79
2022/11/10 06:44:22;;;;;;;;;;;282.10;2278.40;;;;;;5072435;28;20029;-76
2022/11/10 06:46:47;;;;;;;77.35;40.30;;;282.30;2278.40;;;;;;5071582;28;19913;-78
2022/11/10 06:49:13;;;;;;;67.60;37.75;;;282.30;2278.40;;;;;;5071242;28;20016;-76
2022/11/10 06:51:39;;;;;;;69.32;38.78;;;282.50;2278.40;;;;;;5070618;28;20078;-78
2022/11/10 06:54:05;;;;;;;68.32;38.15;;;282.50;2278.40;;;;;;5071848;28;20115;-79
2022/11/10 06:56:30;;;;;;;71.25;38.90;;;307.20;2304.00;;;;;;5084453;28;20394;-77
2022/11/10 06:58:56;;;;;;;71.85;40.70;;;307.30;2304.00;;;;;;5092972;28;20048;-80
2022/11/10 07:01:25;;;;;;;73.07;39.10;;;307.30;2304.00;;;;;;5084980;28;20027;-78
2022/11/10 07:03:52;;;;;;;75.53;40.15;;;307.30;2304.00;;;;;;5085261;28;20032;-78
2022/11/10 07:06:18;;;;;;;69.00;40.55;;;307.30;2304.00;;;;;;5093033;28;20042;-78
2022/11/10 07:08:44;;;;;;;76.35;42.42;;;307.30;2304.00;;;;;;5080377;28;20119;-79
2022/11/10 07:11:10;;;;;;;68.28;38.10;;;307.40;2304.00;;;;;;5089281;28;20047;-78
2022/11/10 07:13:36;;;;;;;72.95;41.20;;;307.50;2304.00;;;;;;5071725;28;20040;-79
2022/11/10 07:16:09;;;;;;;73.15;43.08;;;307.50;2304.00;;;;;;5085837;28;20474;-80
2022/11/10 07:18:35;;;;;;;73.05;39.88;;;307.60;2304.00;;;;;;5071637;28;20028;-79
2022/11/10 07:21:05;;;;;;;65.47;38.72;;;308.10;2304.00;;;;;;5079160;28;20031;-78
2022/11/10 07:23:32;;;;;;;72.63;37.45;;;307.70;2304.00;;;;;;5091141;28;20047;-77
2022/11/10 07:26:01;;;;;;;72.15;41.38;;;307.60;2304.00;;;;;;5091424;28;20032;-78
2022/11/10 07:28:27;;;;;;;67.68;39.05;;;307.60;2304.00;;;;;;5091145;28;20028;-78
2022/11/10 07:30:53;;;;;;;73.95;41.58;;;307.80;2304.00;;;;;;5091224;28;20023;-75
2022/11/10 07:33:19;;;;;;;79.00;41.95;;;307.80;2304.00;;;;;;5091033;28;20020;-76
2022/11/10 07:35:56;;;;;;;72.78;40.33;;;307.80;2304.00;;;;;;5091316;28;20032;-80
2022/11/10 07:38:22;;;;;;;82.10;40.60;;;307.80;2304.00;;;;;;5080832;28;20162;-78
2022/11/10 07:40:52;;;;;;;69.93;40.33;;;307.90;2304.00;;;;;;5070716;28;20524;-78
2022/11/10 07:43:23;;;;;;;65.28;37.83;;;308.00;2304.00;;;;;;5073050;28;20098;-79
2022/11/10 07:45:50;;;;;;;73.30;40.60;;;308.10;2304.00;;;;;;5082193;28;20377;-78
2022/11/10 07:48:17;;;;;;;67.03;39.13;;;308.10;2304.00;;;;;;5070244;28;20033;-79
2022/11/10 07:50:44;;;;;;;80.60;43.65;;;332.80;2329.60;;;;;;5086328;28;20050;-82
2022/11/10 07:53:13;;;;;;;85.50;44.72;;;332.80;2329.60;;;;;;5093204;28;20075;-80
2022/11/10 07:55:40;;;;;;;69.57;39.97;;;332.80;2329.60;;;;;;5080513;28;20088;-82
2022/11/10 07:58:06;;;;;;;71.43;39.25;;;332.90;2329.60;;;;;;5089623;28;20439;-80
2022/11/10 08:00:33;;;;;;;67.25;37.90;;;333.00;2329.60;;;;;;5091465;28;20081;-80
2022/11/10 08:03:03;;;;;;;71.55;40.85;;;333.00;2329.60;;;;;;5079682;28;20028;-79
2022/11/10 08:05:30;;;;;;;68.25;39.83;;;333.10;2329.60;;;;;;5082818;28;20137;-79
2022/11/10 08:07:55;;;;;;;68.38;39.55;;;333.20;2329.60;;;;;;5094287;28;20086;-79
2022/11/10 08:10:21;;;;;;;70.88;40.42;;;333.30;2329.60;;;;;;5095416;28;20024;-81
2022/11/10 08:12:54;;;;;;;74.18;39.95;;;333.30;2329.60;;;;;;5095221;28;20370;-79
2022/11/10 08:15:19;;;;;;;72.82;40.20;;;333.40;2329.60;;;;;;5085793;28;20059;-83
2022/11/10 08:17:45;;;;;;;68.95;39.40;;;333.40;2329.60;;;;;;5091365;28;20020;-81
2022/11/10 08:20:11;;;;;;;71.63;40.70;;;333.50;2329.60;;;;;;5087789;28;20028;-80
2022/11/10 08:22:36;;;;;;;69.22;39.85;;;333.60;2329.60;;;;;;5084783;28;20471;-81
2022/11/10 08:25:02;;;;;;;73.93;41.47;;;333.60;2329.60;;;;;;5074385;28;20025;-82
2022/11/10 08:27:28;;;;;;;66.25;38.80;;;333.60;2329.60;;;;;;5075005;28;20045;-81
2022/11/10 08:29:54;;;;;;;71.00;40.35;;;333.70;2329.60;;;;;;5074580;28;20488;-80
2022/11/10 08:32:20;;;;;;;66.75;37.78;;;333.70;2329.60;;;;;;5074941;28;20128;-85
2022/11/10 08:34:45;;;;;;;67.13;40.92;;;333.70;2329.60;;;;;;5074379;28;20044;-79
2022/11/10 08:37:11;;;;;;;70.03;41.67;;;358.40;2329.60;;;;;;5074819;28;20048;-83
2022/11/10 08:39:37;;;;;;;67.72;40.70;;;358.50;2329.60;;;;;;5074617;28;20020;-83
2022/11/10 08:42:03;;;;;;;70.32;39.22;;;358.50;2329.60;;;;;;5088076;28;20432;-79
2022/11/10 08:44:28;;;;;;;67.72;39.15;;;358.50;2329.60;;;;;;5079700;28;20071;-80
2022/11/10 08:46:54;;;;;;;72.30;40.40;;;358.50;2329.60;;;;;;5094559;28;20028;-79
2022/11/10 08:49:20;;;;;;;66.75;41.97;;;358.60;2329.60;;;;;;5094786;28;20035;-80
2022/11/10 08:51:46;;;;;;;67.43;40.05;;;358.60;2329.60;;;;;;5094551;28;20148;-80
2022/11/10 08:54:11;;;;;;;71.38;40.17;;;358.70;2329.60;;;;;;5095016;28;20469;-80
2022/11/10 08:56:37;;;;;;;62.92;38.08;;;358.70;2329.60;;;;;;5094121;28;20040;-77
2022/11/10 08:59:03;;;;;;;69.78;38.58;;;358.80;2329.60;;;;;;5074316;28;20032;-80
2022/11/10 09:01:28;;;;;;;68.25;40.17;;;358.90;2329.60;;;;;;5073373;28;20017;-80
2022/11/10 09:03:54;;;;;;;65.82;39.33;;;359.00;2329.60;;;;;;5074532;28;20032;-80
2022/11/10 09:06:20;;;;;;;69.07;36.88;;;359.00;2329.60;;;;;;5073579;28;20035;-78
2022/11/10 09:08:45;;;;;;;63.15;39.92;;;359.10;2329.60;;;;;;5073778;28;20024;-80
2022/11/10 09:11:11;;;;;;;62.85;37.58;;;359.20;2329.60;;;;;;5073841;28;20071;-79
2022/11/10 09:13:37;;;;;;;63.97;39.50;;;359.20;2329.60;;;;;;5070953;28;20012;-78
2022/11/10 09:16:04;;;;;;;69.43;38.88;;;359.30;2329.60;;;;;;5079897;28;20481;-77
2022/11/10 09:18:30;;;;;;;60.67;37.97;;;384.00;2329.60;;;;;;5093602;28;20381;-77
2022/11/10 09:20:56;;;;;;;63.70;36.88;;;384.00;2329.60;;;;;;5089275;28;20017;-78
2022/11/10 09:23:23;;;;;;;96.45;46.33;;;384.00;2329.60;;;;;;5085187;28;20118;-82
2022/11/10 09:25:52;;;;;;;60.40;37.38;;;384.10;2329.60;;;;;;5090763;28;20105;-82
2022/11/10 09:28:19;;;;;;;63.38;36.90;;;384.30;2329.60;;;;;;5083448;28;20111;-79
2022/11/10 09:30:46;;;;;;;64.95;39.03;;;384.40;2329.60;;;;;;5093974;28;20017;-80
2022/11/10 09:33:12;;;;;;;66.18;38.75;;;384.40;2329.60;;;;;;5093650;28;20082;-80
2022/11/10 09:35:38;;;;;;;57.80;37.03;;;384.60;2329.60;;;;;;5079409;28;20020;-79
2022/11/10 09:38:04;;;;;;;62.45;35.58;;;384.70;2329.60;;;;;;5079578;28;20034;-78
2022/11/10 09:40:49;;;;;;;63.47;38.10;;;384.70;2329.60;;;;;;5093829;28;20017;-80
2022/11/10 09:43:40;;;;;;;64.13;38.13;;;384.90;2329.60;;;;;;5093976;28;20035;-78
2022/11/10 09:46:22;;;;;;;61.58;34.13;;;384.90;2329.60;;;;;;4995331;28;20054;-76
2022/11/10 09:48:57;;;;;;;50.28;31.38;;;409.60;2355.20;;;;;;4995371;28;20042;-76
2022/11/10 09:51:30;;;;;;;54.53;34.10;;;409.60;2355.20;;;;;;4998180;28;20136;-77
2022/11/10 09:54:11;;;;;;;60.70;35.83;;;409.70;2355.20;;;;;;4995745;28;20029;-77
2022/11/10 09:56:37;;;;;;;54.60;34.50;;;409.70;2355.20;;;;;;5011448;28;20046;-76
2022/11/10 09:59:12;;;;;;;58.85;35.45;;;409.70;2355.20;;;;;;4995996;28;20026;-75
2022/11/10 10:01:41;;;;;;;55.08;33.50;;;409.70;2355.20;;;;;;5003012;28;20081;-78
2022/11/10 10:04:25;;;;;;;61.78;36.97;;;409.70;2355.20;;;;;;4991722;28;20057;-78
2022/11/10 10:07:11;;;;;;;105.47;56.22;;;409.70;2355.20;;;;;;4995822;28;20084;-79
2022/11/10 10:09:50;;;;;;;56.35;34.08;;;409.80;2355.20;;;;;;5011903;28;20030;-79
2022/11/10 10:12:23;;;;;;;61.00;36.40;;;409.80;2355.20;;;;;;4995759;28;20117;-79
2022/11/10 10:15:14;;;;;;;54.92;33.92;;;409.70;2355.20;;;;;;4995617;28;20033;-77
2022/11/10 10:18:06;;;;;;;57.00;37.17;;;409.80;2355.20;;;;;;5008177;28;20121;-78
2022/11/10 10:21:04;;;;;;;60.75;35.05;;;409.80;2355.20;;;;;;4975260;28;20189;-78
2022/11/10 10:23:42;;;;;;;47.85;32.28;;;409.80;2355.20;;;;;;5027215;28;20040;-78
2022/11/10 10:26:14;;;;;;;57.20;33.75;;;409.90;2355.20;;;;;;5056277;28;20041;-77
2022/11/10 10:28:45;;;;;;;62.45;38.47;;;409.90;2355.20;;;;;;5054168;28;20029;-78
2022/11/10 10:31:14;;;;;;;59.00;35.00;;;409.90;2355.20;;;;;;5053384;28;20473;-78
2022/11/10 10:33:40;;;;;;;68.40;40.83;;;410.00;2355.20;;;;;;5054535;28;20390;-76
2022/11/10 10:36:13;;;;;;;64.05;32.53;;;410.00;2355.20;;;;;;5057915;28;20024;-77
2022/11/10 10:38:40;;;;;;;78.40;44.83;;;410.00;2355.20;;;;;;5060090;28;20021;-77
2022/11/10 10:41:18;;;;;;;69.03;39.15;;;410.00;2355.20;;;;;;5070130;28;20078;-77
2022/11/10 10:43:47;;;;;;;73.10;41.67;;;410.00;2355.20;;;;;;5070829;28;20033;-77
2022/11/10 10:46:14;;;;;;;79.97;44.25;;;410.00;2355.20;;;;;;5071170;28;20024;-77
2022/11/10 10:48:41;;;;;;;58.80;33.38;;;410.10;2355.20;;;;;;5054077;28;20385;-78
2022/11/10 10:51:07;;;;;;;52.70;31.50;;;410.20;2355.20;;;;;;5061064;28;20041;-79
2022/11/10 10:53:46;;;;;;;51.25;28.75;;;410.30;2355.20;;;;;;5065930;28;20036;-78
2022/11/10 10:56:22;;;;;;;46.20;28.02;;;410.40;2355.20;;;;;;5053577;28;20056;-77
2022/11/10 10:59:02;;;;;;;63.97;34.97;;;410.40;2355.20;;;;;;5070732;28;20021;-79
2022/11/10 11:01:35;;;;;;;56.05;29.95;;;410.50;2355.20;;;;;;5084764;28;20043;-78
2022/11/10 11:04:29;;;;;;;58.03;34.80;;;435.20;2355.20;;;;;;5086215;28;20020;-78
2022/11/10 11:06:57;;;;;;;56.60;35.17;;;435.20;2355.20;;;;;;5091710;28;20036;-78
2022/11/10 11:09:25;;;;;;;52.38;32.15;;;435.20;2355.20;;;;;;5091714;28;20074;-77
2022/11/10 11:12:19;;;;;;;60.33;35.78;;;435.30;2355.20;;;;;;5088943;28;20035;-78
2022/11/10 11:14:45;;;;;;;53.50;33.45;;;435.30;2355.20;;;;;;5070478;28;20012;-77
2022/11/10 11:17:12;;;;;;;46.30;29.92;;;435.30;2355.20;;;;;;5070702;28;20028;-78
2022/11/10 11:19:39;;;;;;;44.63;28.77;;;435.40;2355.20;;;;;;5086581;28;20020;-79
2022/11/10 11:22:19;;;;;;;45.45;27.38;;;435.50;2355.20;;;;;;5072853;28;20028;-77
2022/11/10 11:25:03;;;;;;;45.65;26.40;;;435.50;2355.20;;;;;;5085807;28;20020;-78
2022/11/10 11:27:42;;;;;;;45.47;27.58;;;435.50;2355.20;;;;;;5082023;28;20123;-78
2022/11/10 11:30:09;;;;;;;51.35;31.48;;;435.50;2355.20;;;;;;5086425;28;20016;-78
2022/11/10 11:32:53;;;;;;;41.30;26.17;;;435.70;2355.20;;;;;;5080076;28;20020;-77
2022/11/10 11:35:47;;;;;;;46.45;28.20;;;435.70;2355.20;;;;;;5092064;28;20024;-77
2022/11/10 11:38:29;;;;;;;39.05;24.35;;;435.80;2355.20;;;;;;5078582;28;20408;-77
2022/11/10 11:41:09;;;;;;;37.35;22.65;;;435.90;2355.20;;;;;;5068600;28;20099;-78
2022/11/10 11:43:56;;;;;;;35.78;24.77;;;435.90;2355.20;;;;;;5062958;28;20393;-78
2022/11/10 11:46:40;;;;;;;36.13;23.73;;;435.90;2355.20;;;;;;5074824;28;20488;-78
2022/11/10 11:49:27;;;;;;;36.90;24.40;;;436.00;2355.20;;;;;;5070746;28;20119;-78
2022/11/10 11:52:17;;;;;;;38.08;23.15;;;460.80;2380.80;;;;;;5086242;28;20493;-77
2022/11/10 11:55:20;;;;;;;33.47;20.83;;;460.80;2380.80;;;;;;5092223;28;20049;-78
2022/11/10 11:58:17;;;;;;;32.17;20.40;;;460.80;2380.80;;;;;;5067035;28;20066;-78
2022/11/10 12:00:54;;;;;;;36.97;22.70;;;460.90;2380.80;;;;;;4992082;28;20087;-79
2022/11/10 12:03:37;;;;;;;40.72;21.40;;;461.00;2380.80;;;;;;4999788;28;20088;-76
2022/11/10 12:06:15;;;;;;;35.42;22.27;;;460.90;2380.80;;;;;;5009765;28;20037;-77
2022/11/10 12:09:00;;;;;;;31.52;20.58;;;460.90;2380.80;;;;;;5010124;28;20030;-78
2022/11/10 12:11:44;;;;;;;39.13;23.25;;;460.90;2380.80;;;;;;4993739;28;20052;-78
2022/11/10 12:14:25;;;;;;;39.35;22.45;;;460.80;2380.80;;;;;;4993382;28;20018;-76
2022/11/10 12:17:18;;;;;;;31.55;21.08;;;460.80;2380.80;;;;;;4998359;28;20022;-77
2022/11/10 12:19:56;;;;;;;33.58;20.20;;;460.80;2380.80;;;;;;4993365;28;20049;-76
2022/11/10 12:22:30;;;;;;;42.65;26.58;;;460.80;2380.80;;;;;;4993774;28;20034;-77
2022/11/10 12:25:04;;;;;;;66.00;33.95;;;436.10;2355.20;;;;;;4992706;28;20069;-77